Portada
METAR-TAF:

METAR-TAF

Aeropuertos :

Yakutsk, Rusia

Aeropuerto de Yakutsk

latitud: 62-01N, longitud: 129-43E, altitud: 103 m

Observación

El informe se hizo hace 15 minutos, a las 23:00 UTC
Viento 2 kt del sur-sureste
Temperatura -3°C
Humedad 68%
Presión 1020 hPa
Visibilidad 10 km o más
sin nubes por debajo de 1500 m y sin presencia de cumulonimbus.

METAR: UEEE 212300Z 16001MPS CAVOK M03/M08 Q1020 R23L/09//60 NOSIG RMK QFE756

Hora: 08:15 (23:15 UTC)

Pronóstico

El informe se hizo hace 3 horas y 15 minutos, a las 20:00 UTC
Pronóstico válido del 21 a las 21 UTC al 23 a las 03 UTC
Viento 10 kt del noroeste con ráfagas de 19 kt
Visibilidad 10 km o más
Nubes dispersas a una altura de 3000 ft, Cumulonimbus.
Cielo nuboso a una altura de 10000 ft

TAF: UEEE 212000Z 2121/2303 31005G10MPS 9999 SCT030CB BKN100

Observaciones y pronósticos meteorológicos de más de 4000 aeropuertos (mensajes METAR y TAF).

Los puntos amarillos y rojos representan las estaciones disponibles.

Ponga el ratón en el punto deseado para ver el nombre de la estación.

Haga clic para ver las observaciones y los pronósticos meteorológicos.

Para cambiar el mapa : haga clic en los botones verdes con una cruz de color negro para hacer un zoom, en el botón verde con un guión para alejar o en las flechas verdes para mapas adyacentes.


METAR-TAF: